createdAt,value
2023-03-24T00:01:20.522Z,98805.56
2023-03-24T00:03:25.925Z,98802.56
2023-03-24T00:05:30.570Z,98807.69
2023-03-24T00:07:35.400Z,98806.88
2023-03-24T00:09:38.171Z,98810.13
2023-03-24T00:11:40.954Z,98801.94
2023-03-24T00:13:43.758Z,98801.94
2023-03-24T00:15:49.013Z,98810.91
2023-03-24T00:17:52.046Z,98801.94
2023-03-24T00:19:56.267Z,98803.06
2023-03-24T00:22:00.780Z,98804.66
2023-03-24T00:24:05.167Z,98806.31
2023-03-24T00:26:12.479Z,98808.19
2023-03-24T00:28:16.509Z,98789.34
2023-03-24T00:30:20.198Z,98799.91
2023-03-24T00:32:23.120Z,98800.41
2023-03-24T00:34:25.926Z,98794.47
2023-03-24T00:36:29.758Z,98790.94
2023-03-24T00:38:36.714Z,98794.16
2023-03-24T00:40:39.544Z,98794.97
2023-03-24T00:42:46.034Z,98783.78
2023-03-24T00:44:48.744Z,98799.50
2023-03-24T00:46:58.409Z,98788.94
2023-03-24T00:49:06.546Z,98777.22
2023-03-24T00:51:11.235Z,98774.47
2023-03-24T00:53:16.202Z,98778.53
2023-03-24T00:55:19.140Z,98776.41
2023-03-24T00:57:22.407Z,98767.44
2023-03-24T00:59:25.108Z,98758.47
2023-03-24T01:01:33.580Z,98763.69
2023-03-24T01:03:43.387Z,98761.31
2023-03-24T01:05:48.596Z,98758.88
2023-03-24T01:07:56.696Z,98748.59
2023-03-24T01:09:59.734Z,98754.34
2023-03-24T01:12:04.542Z,98747.28
2023-03-24T01:14:07.506Z,98751.41
2023-03-24T01:16:10.403Z,98750.09
2023-03-24T01:18:14.868Z,98737.72
2023-03-24T01:20:17.582Z,98748.28
2023-03-24T01:22:20.780Z,98744.59
2023-03-24T01:24:25.955Z,98746.28
2023-03-24T01:26:28.574Z,98744.78
2023-03-24T01:28:31.698Z,98743.47
2023-03-24T01:30:34.506Z,98752.53
2023-03-24T01:32:37.664Z,98732.50
2023-03-24T01:34:40.330Z,98738.84
2023-03-24T01:36:43.064Z,98735.41
2023-03-24T01:38:45.827Z,98729.28
2023-03-24T01:40:48.680Z,98728.53
2023-03-24T01:42:52.341Z,98733.28
2023-03-24T01:45:00.742Z,98722.69
2023-03-24T01:47:07.496Z,98729.03
2023-03-24T01:49:10.457Z,98728.53
2023-03-24T01:51:23.623Z,98739.50
2023-03-24T01:53:28.785Z,98722.28
2023-03-24T01:55:32.373Z,98723.16
2023-03-24T01:57:43.027Z,98734.66
2023-03-24T01:59:49.649Z,98729.59
2023-03-24T02:02:02.888Z,98728.09
2023-03-24T02:04:07.610Z,98740.06
2023-03-24T02:06:11.446Z,98736.63
2023-03-24T02:08:34.734Z,98728.78
2023-03-24T02:10:38.775Z,98736.41
2023-03-24T02:12:43.135Z,98731.06
2023-03-24T02:14:46.718Z,98736.50
2023-03-24T02:17:30.390Z,98743.84
2023-03-24T02:20:11.797Z,98745.16
2023-03-24T02:22:49.438Z,98737.00
2023-03-24T02:25:16.967Z,98733.41
2023-03-24T02:27:19.535Z,98745.88
2023-03-24T02:30:04.507Z,98738.22
2023-03-24T02:32:34.683Z,98730.09
2023-03-24T02:34:43.386Z,98738.75
2023-03-24T02:37:10.139Z,98733.81
2023-03-24T02:39:21.528Z,98731.34
2023-03-24T02:41:38.634Z,98727.19
2023-03-24T02:43:53.563Z,98722.28
2023-03-24T02:46:20.670Z,98713.28
2023-03-24T02:48:42.827Z,98717.75
2023-03-24T02:50:51.412Z,98718.31
2023-03-24T02:53:00.642Z,98711.66
2023-03-24T02:55:15.688Z,98710.63
2023-03-24T02:57:42.672Z,98707.41
2023-03-24T02:59:56.655Z,98706.59
2023-03-24T03:02:14.838Z,98694.94
2023-03-24T03:04:22.409Z,98702.56
2023-03-24T03:06:32.947Z,98702.56
2023-03-24T03:08:37.037Z,98703.69
2023-03-24T03:10:46.608Z,98711.25
2023-03-24T03:12:55.090Z,98696.00
2023-03-24T03:15:06.718Z,98697.66
2023-03-24T03:17:33.373Z,98692.50
2023-03-24T03:19:42.727Z,98692.22
2023-03-24T03:21:48.674Z,98690.28
2023-03-24T03:23:53.955Z,98679.03
2023-03-24T03:26:04.872Z,98669.97
2023-03-24T03:28:10.778Z,98681.88
2023-03-24T03:30:22.570Z,98679.06
2023-03-24T03:32:31.800Z,98687.63
2023-03-24T03:34:58.313Z,98694.59
2023-03-24T03:37:44.852Z,98694.78
2023-03-24T03:40:05.289Z,98691.16
2023-03-24T03:42:08.225Z,98700.84
2023-03-24T03:44:11.243Z,98693.69
2023-03-24T03:46:15.499Z,98680.59
2023-03-24T03:48:19.072Z,98683.00
2023-03-24T03:50:22.158Z,98679.91
2023-03-24T03:52:24.852Z,98670.22
2023-03-24T03:54:31.049Z,98675.53
2023-03-24T03:56:36.271Z,98670.81
2023-03-24T03:58:40.164Z,98666.06
2023-03-24T04:00:44.500Z,98661.03
2023-03-24T04:03:14.523Z,98683.19
2023-03-24T04:05:26.279Z,98665.25
2023-03-24T04:07:58.358Z,98676.66
2023-03-24T04:10:29.933Z,98670.59
2023-03-24T04:13:06.863Z,98669.47
2023-03-24T04:15:15.249Z,98651.63
2023-03-24T04:17:35.815Z,98660.47
2023-03-24T04:19:57.334Z,98665.00
2023-03-24T04:22:18.392Z,98660.69
2023-03-24T04:24:29.572Z,98652.81
2023-03-24T04:26:34.548Z,98654.22
2023-03-24T04:29:03.850Z,98654.13
2023-03-24T04:31:23.963Z,98652.56
2023-03-24T04:33:52.373Z,98644.09
2023-03-24T04:36:22.587Z,98650.19
2023-03-24T04:38:30.545Z,98643.72
2023-03-24T04:40:35.075Z,98650.66
2023-03-24T04:42:45.686Z,98654.38
2023-03-24T04:44:51.713Z,98651.84
2023-03-24T04:46:58.399Z,98654.16
2023-03-24T04:49:03.252Z,98647.88
2023-03-24T04:51:07.719Z,98644.22
2023-03-24T04:53:10.929Z,98648.75
2023-03-24T04:55:45.027Z,98654.28
2023-03-24T04:57:47.814Z,98637.63
2023-03-24T04:59:50.560Z,98641.97
2023-03-24T05:01:53.712Z,98632.22
2023-03-24T05:03:58.494Z,98639.16
2023-03-24T05:06:01.906Z,98645.78
2023-03-24T05:08:04.932Z,98640.09
2023-03-24T05:10:08.694Z,98644.47
2023-03-24T05:12:13.210Z,98647.75
2023-03-24T05:14:17.007Z,98636.25
2023-03-24T05:16:20.485Z,98635.50
2023-03-24T05:18:23.186Z,98643.59
2023-03-24T05:20:27.344Z,98638.03
2023-03-24T05:22:30.003Z,98638.03
2023-03-24T05:24:33.007Z,98629.69
2023-03-24T05:26:36.040Z,98633.88
2023-03-24T05:28:38.848Z,98630.03
2023-03-24T05:30:41.915Z,98631.19
2023-03-24T05:32:46.828Z,98627.34
2023-03-24T05:34:50.010Z,98621.88
2023-03-24T05:36:52.799Z,98633.28
2023-03-24T05:38:55.769Z,98635.19
2023-03-24T05:41:03.035Z,98632.13
2023-03-24T05:43:06.153Z,98640.16
2023-03-24T05:45:10.071Z,98641.78
2023-03-24T05:47:16.273Z,98632.00
2023-03-24T05:49:18.874Z,98634.91
2023-03-24T05:51:21.971Z,98623.66
2023-03-24T05:53:24.590Z,98622.03
2023-03-24T05:55:27.599Z,98614.03
2023-03-24T05:57:34.933Z,98612.06
2023-03-24T05:59:38.891Z,98617.22
2023-03-24T06:01:44.492Z,98613.16
2023-03-24T06:03:49.451Z,98615.41
2023-03-24T06:05:53.005Z,98609.56
2023-03-24T06:07:58.790Z,98616.91
2023-03-24T06:10:05.168Z,98606.44
2023-03-24T06:12:08.388Z,98606.25
2023-03-24T06:14:11.107Z,98604.59
2023-03-24T06:16:14.301Z,98610.53
2023-03-24T06:18:17.017Z,98594.78
2023-03-24T06:20:19.607Z,98599.72
2023-03-24T06:22:22.921Z,98599.69
2023-03-24T06:24:26.057Z,98600.91
2023-03-24T06:26:30.956Z,98603.72
2023-03-24T06:28:34.724Z,98594.00
2023-03-24T06:30:39.017Z,98592.47
2023-03-24T06:32:42.441Z,98591.59
2023-03-24T06:34:45.289Z,98586.84
2023-03-24T06:36:48.510Z,98582.41
2023-03-24T06:38:53.936Z,98577.59
2023-03-24T06:41:01.440Z,98574.13
2023-03-24T06:43:04.154Z,98574.34
2023-03-24T06:45:07.792Z,98568.34
2023-03-24T06:47:10.704Z,98567.75
2023-03-24T06:49:13.356Z,98556.84
2023-03-24T06:51:16.273Z,98566.19
2023-03-24T06:53:19.286Z,98556.69
2023-03-24T06:55:22.452Z,98559.09
2023-03-24T06:57:25.254Z,98561.19
2023-03-24T06:59:28.527Z,98549.91
2023-03-24T07:01:31.314Z,98557.13
2023-03-24T07:03:34.320Z,98548.56
2023-03-24T07:05:42.276Z,98552.56
2023-03-24T07:09:50.672Z,98556.50
2023-03-24T07:11:53.614Z,98542.72
2023-03-24T07:13:56.740Z,98533.50
2023-03-24T07:15:59.563Z,98538.56
2023-03-24T07:18:02.407Z,98542.31
2023-03-24T07:20:08.540Z,98534.22
2023-03-24T07:22:11.402Z,98532.50
2023-03-24T07:24:14.043Z,98548.91
2023-03-24T07:26:16.697Z,98542.09
2023-03-24T07:28:19.896Z,98548.66
2023-03-24T07:30:30.032Z,98538.28
2023-03-24T07:32:40.983Z,98534.03
2023-03-24T07:34:45.970Z,98527.63
2023-03-24T07:36:48.801Z,98533.34
2023-03-24T07:38:51.483Z,98527.47
2023-03-24T07:40:54.871Z,98523.63
2023-03-24T07:43:01.590Z,98516.50
2023-03-24T07:45:05.654Z,98498.25
2023-03-24T07:47:08.375Z,98501.91
2023-03-24T07:49:18.786Z,98503.25
2023-03-24T07:51:22.368Z,98487.81
2023-03-24T07:53:25.100Z,98486.88
2023-03-24T07:55:27.840Z,98491.31
2023-03-24T07:57:32.115Z,98490.16
2023-03-24T07:59:35.036Z,98484.88
2023-03-24T08:01:38.789Z,98482.41
2023-03-24T08:03:42.298Z,98479.97
2023-03-24T08:05:45.973Z,98475.88
2023-03-24T08:07:53.703Z,98475.00
2023-03-24T08:09:56.626Z,98469.06
2023-03-24T08:12:06.944Z,98475.94
2023-03-24T08:14:16.478Z,98479.25
2023-03-24T08:16:19.147Z,98478.81
2023-03-24T08:18:24.486Z,98478.59
2023-03-24T08:20:29.703Z,98481.94
2023-03-24T08:22:32.418Z,98477.84
2023-03-24T08:24:36.526Z,98481.75
2023-03-24T08:26:39.201Z,98474.81
2023-03-24T08:28:41.956Z,98469.88
2023-03-24T08:30:44.778Z,98474.00
2023-03-24T08:32:51.539Z,98467.41
2023-03-24T08:34:54.595Z,98467.50
2023-03-24T08:36:57.236Z,98481.34
2023-03-24T08:39:00.115Z,98484.09
2023-03-24T08:41:06.978Z,98484.66
2023-03-24T08:43:14.511Z,98475.84
2023-03-24T08:45:21.201Z,98472.53
2023-03-24T08:47:23.927Z,98479.53
2023-03-24T08:49:26.565Z,98477.66
2023-03-24T08:51:29.512Z,98467.50
2023-03-24T08:53:32.252Z,98478.59
2023-03-24T08:55:37.469Z,98468.78
2023-03-24T08:57:40.064Z,98471.50
2023-03-24T08:59:42.915Z,98463.94
2023-03-24T09:01:45.885Z,98458.00
2023-03-24T09:03:48.976Z,98450.88
2023-03-24T09:05:55.296Z,98458.00
2023-03-24T09:08:00.664Z,98451.25
2023-03-24T09:10:05.512Z,98449.75
2023-03-24T09:12:09.850Z,98449.06
2023-03-24T09:14:12.606Z,98452.59
2023-03-24T09:16:16.604Z,98443.69
2023-03-24T09:18:21.378Z,98447.78
2023-03-24T09:20:24.176Z,98444.16
2023-03-24T09:22:26.878Z,98436.66
2023-03-24T09:24:29.512Z,98435.94
2023-03-24T09:26:34.062Z,98426.28
2023-03-24T09:28:36.771Z,98419.47
2023-03-24T09:30:39.478Z,98414.16
2023-03-24T09:32:42.424Z,98404.53
2023-03-24T09:34:45.417Z,98401.50
2023-03-24T09:36:48.298Z,98392.63
2023-03-24T09:38:50.916Z,98382.25
2023-03-24T09:40:58.067Z,98391.03
2023-03-24T09:43:06.973Z,98402.31
2023-03-24T09:45:22.119Z,98404.63
2023-03-24T09:47:36.970Z,98390.25
2023-03-24T09:49:43.768Z,98395.41
2023-03-24T09:51:47.242Z,98391.25
2023-03-24T09:54:02.352Z,98388.50
2023-03-24T09:56:23.758Z,98384.25
2023-03-24T09:58:29.854Z,98389.94
2023-03-24T10:00:34.701Z,98383.53
2023-03-24T10:02:37.502Z,98378.38
2023-03-24T10:04:40.216Z,98369.50
2023-03-24T10:06:43.812Z,98371.47
2023-03-24T10:09:10.598Z,98373.50
2023-03-24T10:11:35.984Z,98362.69
2023-03-24T10:14:11.692Z,98362.44
2023-03-24T10:16:25.895Z,98350.63
2023-03-24T10:18:39.460Z,98358.97
2023-03-24T10:20:46.250Z,98361.44
2023-03-24T10:22:48.835Z,98360.72
2023-03-24T10:25:00.122Z,98351.66
2023-03-24T10:27:34.851Z,98359.13
2023-03-24T10:29:39.388Z,98347.50
2023-03-24T10:31:47.624Z,98346.94
2023-03-24T10:33:50.587Z,98355.00
2023-03-24T10:36:07.715Z,98354.81
2023-03-24T10:38:18.827Z,98352.59
2023-03-24T10:40:25.819Z,98346.63
2023-03-24T10:42:37.210Z,98338.56
2023-03-24T10:44:40.326Z,98337.44
2023-03-24T10:46:50.697Z,98339.09
2023-03-24T10:49:06.941Z,98345.03
2023-03-24T10:51:18.735Z,98340.75
2023-03-24T10:53:21.636Z,98346.69
2023-03-24T10:55:35.899Z,98334.28
2023-03-24T10:57:38.639Z,98340.88
2023-03-24T10:59:56.236Z,98347.75
2023-03-24T11:02:11.423Z,98337.34
2023-03-24T11:04:20.386Z,98333.97
2023-03-24T11:06:23.247Z,98326.28
2023-03-24T11:08:32.042Z,98331.19
2023-03-24T11:10:34.769Z,98330.00
2023-03-24T11:12:40.060Z,98322.66
2023-03-24T11:14:46.139Z,98325.34
2023-03-24T11:16:48.814Z,98315.84
2023-03-24T11:19:01.249Z,98316.00
2023-03-24T11:21:07.195Z,98313.31
2023-03-24T11:23:09.808Z,98305.41
2023-03-24T11:25:13.487Z,98312.19
2023-03-24T11:27:18.574Z,98310.28
2023-03-24T11:29:25.798Z,98304.53
2023-03-24T11:31:35.395Z,98308.50
2023-03-24T11:33:56.857Z,98297.41
2023-03-24T11:36:05.626Z,98294.75
2023-03-24T11:38:08.889Z,98292.94
2023-03-24T11:40:26.100Z,98299.72
2023-03-24T11:42:28.760Z,98293.69
2023-03-24T11:44:52.616Z,98292.00
2023-03-24T11:47:05.152Z,98286.66
2023-03-24T11:49:10.452Z,98297.66
2023-03-24T11:51:19.773Z,98288.22
2023-03-24T11:53:26.143Z,98285.16
2023-03-24T11:55:49.887Z,98281.78
2023-03-24T11:58:02.424Z,98277.81
2023-03-24T12:00:20.662Z,98281.69
2023-03-24T12:02:38.415Z,98277.72
2023-03-24T12:05:14.688Z,98266.63
2023-03-24T12:07:36.513Z,98273.50
2023-03-24T12:10:07.753Z,98269.88
2023-03-24T12:12:33.548Z,98261.91
2023-03-24T12:15:07.781Z,98266.41
2023-03-24T12:17:23.720Z,98264.41
2023-03-24T12:19:48.942Z,98265.97
2023-03-24T12:22:23.322Z,98257.31
2023-03-24T12:24:38.178Z,98259.19
2023-03-24T12:26:42.777Z,98259.91
2023-03-24T12:29:10.158Z,98251.66
2023-03-24T12:31:54.098Z,98261.31
2023-03-24T12:34:19.638Z,98251.72
2023-03-24T12:36:37.334Z,98252.44
2023-03-24T12:38:55.969Z,98248.13
2023-03-24T12:41:13.208Z,98243.75
2023-03-24T12:43:24.220Z,98244.13
2023-03-24T12:45:57.483Z,98240.84
2023-03-24T12:48:34.302Z,98242.47
2023-03-24T12:51:08.855Z,98242.34
2023-03-24T12:53:36.736Z,98231.63
2023-03-24T12:55:48.540Z,98232.78
2023-03-24T12:57:51.532Z,98224.00
2023-03-24T13:00:06.797Z,98233.84
2023-03-24T13:02:25.580Z,98226.25
2023-03-24T13:04:35.613Z,98223.41
2023-03-24T13:06:50.089Z,98216.22
2023-03-24T13:09:33.549Z,98211.97
2023-03-24T13:11:43.766Z,98217.38
2023-03-24T13:13:47.138Z,98204.78
2023-03-24T13:16:00.933Z,98205.84
2023-03-24T13:18:12.470Z,98199.50
2023-03-24T13:20:24.666Z,98201.34
2023-03-24T13:22:28.134Z,98210.63
2023-03-24T13:24:31.865Z,98202.56
2023-03-24T13:26:39.963Z,98197.69
2023-03-24T13:29:04.061Z,98190.94
2023-03-24T13:31:09.840Z,98190.88
2023-03-24T13:33:21.459Z,98199.72
2023-03-24T13:36:29.654Z,98177.63
2023-03-24T13:38:38.205Z,98185.06
2023-03-24T13:40:41.752Z,98188.84
2023-03-24T13:42:50.220Z,98188.34
2023-03-24T13:44:53.046Z,98185.84
2023-03-24T13:47:14.957Z,98182.66
2023-03-24T13:49:17.538Z,98175.47
2023-03-24T13:51:31.701Z,98179.59
2023-03-24T13:53:45.703Z,98179.88
2023-03-24T13:55:53.674Z,98177.25
2023-03-24T13:58:01.822Z,98177.97
2023-03-24T14:00:12.152Z,98171.78
2023-03-24T14:02:26.654Z,98172.50
2023-03-24T14:04:29.471Z,98172.75
2023-03-24T14:06:52.407Z,98174.56
2023-03-24T14:09:06.563Z,98177.13
2023-03-24T14:11:34.518Z,98166.41
2023-03-24T14:13:47.191Z,98158.44
2023-03-24T14:15:57.284Z,98159.47
2023-03-24T14:18:25.820Z,98162.88
2023-03-24T14:20:39.463Z,98161.31
2023-03-24T14:22:48.694Z,98160.06
2023-03-24T14:25:27.244Z,98161.19
2023-03-24T14:27:42.924Z,98150.13
2023-03-24T14:29:51.782Z,98145.34
2023-03-24T14:32:17.004Z,98150.38
2023-03-24T14:34:25.621Z,98154.63
2023-03-24T14:36:39.845Z,98157.34
2023-03-24T14:38:45.129Z,98156.09
2023-03-24T14:40:57.205Z,98150.16
2023-03-24T14:43:13.471Z,98145.81
2023-03-24T14:45:56.640Z,98148.22
2023-03-24T14:48:01.527Z,98145.03
2023-03-24T14:50:22.232Z,98148.09
2023-03-24T14:52:45.149Z,98148.47
2023-03-24T14:54:59.765Z,98144.81
2023-03-24T14:57:04.432Z,98144.47
2023-03-24T14:59:42.472Z,98146.06
2023-03-24T15:01:48.857Z,98142.53
2023-03-24T15:04:07.457Z,98136.94
2023-03-24T15:06:17.297Z,98141.63
2023-03-24T15:08:27.307Z,98141.63
2023-03-24T15:10:48.168Z,98142.06
2023-03-24T15:12:51.929Z,98139.59
2023-03-24T15:14:54.774Z,98130.91
2023-03-24T15:17:24.308Z,98144.28
2023-03-24T15:19:31.840Z,98134.78
2023-03-24T15:21:34.401Z,98141.75
2023-03-24T15:23:37.039Z,98135.00
2023-03-24T15:25:42.536Z,98134.56
2023-03-24T15:27:52.143Z,98136.06
2023-03-24T15:30:00.454Z,98137.53
2023-03-24T15:32:04.644Z,98137.91
2023-03-24T15:34:30.495Z,98127.63
2023-03-24T15:36:40.921Z,98127.53
2023-03-24T15:38:50.136Z,98129.00
2023-03-24T15:41:08.061Z,98124.00
2023-03-24T15:43:20.665Z,98130.94
2023-03-24T15:45:32.343Z,98126.28
2023-03-24T15:47:37.964Z,98130.84
2023-03-24T15:49:51.821Z,98125.22
2023-03-24T15:52:27.274Z,98128.44
2023-03-24T15:55:22.377Z,98130.84
2023-03-24T15:57:26.009Z,98121.03
2023-03-24T15:59:37.220Z,98121.03
2023-03-24T16:01:44.082Z,98121.13
2023-03-24T16:03:51.109Z,98133.00
2023-03-24T16:05:56.111Z,98121.47
2023-03-24T16:08:07.994Z,98120.06
2023-03-24T16:10:55.935Z,98130.00
2023-03-24T16:13:19.978Z,98128.50
2023-03-24T16:15:23.404Z,98129.66
2023-03-24T16:17:26.287Z,98133.09
2023-03-24T16:19:29.107Z,98138.91
2023-03-24T16:21:31.849Z,98132.97
2023-03-24T16:23:34.524Z,98130.94
2023-03-24T16:25:37.230Z,98126.13
2023-03-24T16:27:40.067Z,98122.03
2023-03-24T16:29:43.653Z,98117.94
2023-03-24T16:31:49.413Z,98116.59
2023-03-24T16:33:53.384Z,98104.59
2023-03-24T16:35:56.556Z,98115.09
2023-03-24T16:37:59.236Z,98117.13
2023-03-24T16:40:03.579Z,98128.78
2023-03-24T16:42:06.799Z,98127.88
2023-03-24T16:44:09.444Z,98110.56
2023-03-24T16:46:18.018Z,98112.91
2023-03-24T16:48:20.891Z,98110.94
2023-03-24T16:50:23.471Z,98111.09
2023-03-24T16:52:26.295Z,98096.47
2023-03-24T16:54:28.917Z,98102.66
2023-03-24T16:56:31.871Z,98102.03
2023-03-24T16:58:34.770Z,98099.66
2023-03-24T17:00:37.513Z,98101.03
2023-03-24T17:02:40.263Z,98099.41
2023-03-24T17:04:42.948Z,98102.81
2023-03-24T17:06:54.461Z,98099.31
2023-03-24T17:08:58.355Z,98094.53
2023-03-24T17:11:01.794Z,98094.38
2023-03-24T17:13:04.519Z,98089.47
2023-03-24T17:15:08.112Z,98089.81
2023-03-24T17:17:11.802Z,98093.69
2023-03-24T17:19:17.540Z,98089.81
2023-03-24T17:21:20.370Z,98078.06
2023-03-24T17:23:23.032Z,98075.22
2023-03-24T17:25:29.360Z,98082.63
2023-03-24T17:27:32.339Z,98073.03
2023-03-24T17:29:36.726Z,98081.25
2023-03-24T17:31:39.654Z,98072.56
2023-03-24T17:33:42.283Z,98070.38
2023-03-24T17:35:48.452Z,98073.34
2023-03-24T17:37:54.010Z,98065.50
2023-03-24T17:39:57.684Z,98072.63
2023-03-24T17:42:01.661Z,98072.31
2023-03-24T17:44:04.489Z,98060.59
2023-03-24T17:46:07.256Z,98063.53
2023-03-24T17:48:10.060Z,98053.59
2023-03-24T17:50:14.113Z,98054.41
2023-03-24T17:52:16.928Z,98050.75
2023-03-24T17:54:20.787Z,98047.28
2023-03-24T17:56:24.270Z,98044.56
2023-03-24T17:58:27.787Z,98043.75
2023-03-24T18:00:30.734Z,98042.38
2023-03-24T18:02:33.425Z,98041.09
2023-03-24T18:04:36.371Z,98039.31
2023-03-24T18:06:42.099Z,98043.19
2023-03-24T18:08:44.798Z,98035.00
2023-03-24T18:10:47.637Z,98032.25
2023-03-24T18:12:53.337Z,98035.00
2023-03-24T18:14:56.251Z,98028.38
2023-03-24T18:16:58.901Z,98019.72
2023-03-24T18:19:02.020Z,98016.53
2023-03-24T18:21:07.417Z,98023.44
2023-03-24T18:23:10.011Z,98017.53
2023-03-24T18:25:13.768Z,98010.81
2023-03-24T18:27:16.504Z,98020.16
2023-03-24T18:29:22.233Z,98009.06
2023-03-24T18:31:26.502Z,98008.16
2023-03-24T18:33:33.320Z,98001.09
2023-03-24T18:35:36.177Z,98002.44
2023-03-24T18:37:38.905Z,98001.53
2023-03-24T18:39:41.641Z,97989.66
2023-03-24T18:41:44.329Z,97998.97
2023-03-24T18:43:48.292Z,97991.81
2023-03-24T18:45:51.465Z,97997.44
2023-03-24T18:47:54.259Z,97986.88
2023-03-24T18:49:56.957Z,97984.00
2023-03-24T18:52:00.801Z,97981.81
2023-03-24T18:54:07.674Z,97989.00
2023-03-24T18:56:11.264Z,97981.50
2023-03-24T18:58:15.629Z,97985.81
2023-03-24T19:00:20.462Z,97977.34
2023-03-24T19:02:23.515Z,97973.97
2023-03-24T19:04:26.492Z,97976.72
2023-03-24T19:06:31.574Z,97986.00
2023-03-24T19:08:38.089Z,97974.31
2023-03-24T19:10:45.325Z,97969.53
2023-03-24T19:12:47.988Z,97962.34
2023-03-24T19:14:50.938Z,97971.09
2023-03-24T19:16:53.611Z,97962.81
2023-03-24T19:18:58.097Z,97957.47
2023-03-24T19:21:02.221Z,97959.25
2023-03-24T19:23:05.212Z,97960.06
2023-03-24T19:25:08.527Z,97961.66
2023-03-24T19:27:11.392Z,97959.59
2023-03-24T19:29:14.035Z,97952.53
2023-03-24T19:31:18.894Z,97947.44
2023-03-24T19:33:22.243Z,97948.34
2023-03-24T19:35:25.337Z,97939.03
2023-03-24T19:37:31.845Z,97929.91
2023-03-24T19:39:34.664Z,97938.41
2023-03-24T19:41:37.330Z,97928.97
2023-03-24T19:43:40.498Z,97927.38
2023-03-24T19:45:43.481Z,97929.97
2023-03-24T19:47:46.634Z,97932.25
2023-03-24T19:49:49.807Z,97923.72
2023-03-24T19:51:52.452Z,97915.41
2023-03-24T19:53:55.396Z,97922.00
2023-03-24T19:55:59.415Z,97917.53
2023-03-24T19:58:03.554Z,97911.97
2023-03-24T20:00:09.642Z,97918.69
2023-03-24T20:02:19.270Z,97907.31
2023-03-24T20:04:24.268Z,97917.75
2023-03-24T20:06:27.419Z,97911.97
2023-03-24T20:08:31.145Z,97915.94
2023-03-24T20:10:36.639Z,97908.56
2023-03-24T20:12:39.467Z,97906.41
2023-03-24T20:14:42.232Z,97899.53
2023-03-24T20:16:45.134Z,97909.44
2023-03-24T20:18:47.917Z,97908.75
2023-03-24T20:20:51.488Z,97895.78
2023-03-24T20:22:54.271Z,97891.91
2023-03-24T20:25:01.220Z,97894.19
2023-03-24T20:27:04.243Z,97892.91
2023-03-24T20:29:06.936Z,97881.06
2023-03-24T20:31:17.202Z,97886.41
2023-03-24T20:33:20.971Z,97886.88
2023-03-24T20:35:24.943Z,97878.69
2023-03-24T20:37:29.451Z,97882.69
2023-03-24T20:39:33.418Z,97884.16
2023-03-24T20:41:36.136Z,97885.16
2023-03-24T20:43:40.931Z,97871.50
2023-03-24T20:45:44.319Z,97867.84
2023-03-24T20:47:47.623Z,97872.16
2023-03-24T20:49:50.718Z,97876.72
2023-03-24T20:51:53.787Z,97871.38
2023-03-24T20:53:56.819Z,97866.72
2023-03-24T20:56:01.589Z,97861.41
2023-03-24T20:58:08.276Z,97855.94
2023-03-24T21:00:14.332Z,97862.97
2023-03-24T21:02:19.054Z,97853.22
2023-03-24T21:04:21.831Z,97860.13
2023-03-24T21:06:24.589Z,97856.16
2023-03-24T21:08:27.547Z,97855.00
2023-03-24T21:10:30.260Z,97855.69
2023-03-24T21:12:33.379Z,97850.09
2023-03-24T21:14:36.048Z,97856.22
2023-03-24T21:16:38.812Z,97862.00
2023-03-24T21:18:42.811Z,97858.94
2023-03-24T21:20:55.678Z,97858.00
2023-03-24T21:23:03.724Z,97859.16
2023-03-24T21:25:06.825Z,97861.66
2023-03-24T21:27:09.534Z,97868.53
2023-03-24T21:29:13.268Z,97857.41
2023-03-24T21:31:25.123Z,97860.25
2023-03-24T21:33:27.893Z,97868.09
2023-03-24T21:35:30.512Z,97864.59
2023-03-24T21:37:33.192Z,97875.28
2023-03-24T21:39:36.289Z,97871.88
2023-03-24T21:41:39.139Z,97867.34
2023-03-24T21:43:42.286Z,97865.09
2023-03-24T21:45:46.318Z,97864.41
2023-03-24T21:47:50.120Z,97872.75
2023-03-24T21:49:59.106Z,97865.34
2023-03-24T21:52:03.408Z,97868.66
2023-03-24T21:54:09.840Z,97868.00
2023-03-24T21:56:12.501Z,97868.13
2023-03-24T21:58:15.200Z,97881.44
2023-03-24T22:00:20.940Z,97878.56
2023-03-24T22:02:25.218Z,97886.28
2023-03-24T22:04:27.910Z,97890.50
2023-03-24T22:06:30.556Z,97883.19
2023-03-24T22:08:33.258Z,97883.06
2023-03-24T22:10:36.432Z,97883.72
2023-03-24T22:12:39.751Z,97890.19
2023-03-24T22:14:42.338Z,97899.69
2023-03-24T22:16:44.960Z,97903.91
2023-03-24T22:18:47.691Z,97894.44
2023-03-24T22:20:55.147Z,97888.41
2023-03-24T22:22:58.594Z,97903.84
2023-03-24T22:25:01.517Z,97898.72
2023-03-24T22:27:05.566Z,97899.06
2023-03-24T22:29:08.291Z,97905.16
2023-03-24T22:31:16.824Z,97904.09
2023-03-24T22:33:19.798Z,97900.25
2023-03-24T22:35:23.429Z,97898.53
2023-03-24T22:37:26.535Z,97897.25
2023-03-24T22:39:29.108Z,97907.69
2023-03-24T22:41:31.662Z,97901.78
2023-03-24T22:43:35.862Z,97902.47
2023-03-24T22:45:38.651Z,97902.63
2023-03-24T22:47:41.350Z,97900.84
2023-03-24T22:49:44.048Z,97910.97
2023-03-24T22:51:46.742Z,97917.88
2023-03-24T22:53:49.616Z,97911.81
2023-03-24T22:55:52.687Z,97919.66
2023-03-24T22:57:55.953Z,97927.69
2023-03-24T23:00:02.050Z,97926.09
2023-03-24T23:02:09.932Z,97930.44
2023-03-24T23:04:13.244Z,97922.72
2023-03-24T23:06:16.109Z,97926.91
2023-03-24T23:08:19.506Z,97934.63
2023-03-24T23:10:22.153Z,97933.34
2023-03-24T23:12:25.386Z,97929.50
2023-03-24T23:14:28.295Z,97931.16
2023-03-24T23:16:34.181Z,97939.16
2023-03-24T23:18:37.949Z,97934.19
2023-03-24T23:20:41.461Z,97946.72
2023-03-24T23:22:44.068Z,97936.13
2023-03-24T23:24:48.124Z,97933.41
2023-03-24T23:26:50.691Z,97932.63
2023-03-24T23:28:53.450Z,97948.81
2023-03-24T23:30:56.153Z,97941.97
2023-03-24T23:32:58.872Z,97947.88
2023-03-24T23:35:03.098Z,97942.63
2023-03-24T23:37:06.256Z,97937.81
2023-03-24T23:39:09.093Z,97935.09
2023-03-24T23:41:11.857Z,97948.50
2023-03-24T23:43:14.536Z,97944.22
2023-03-24T23:45:19.960Z,97945.66
2023-03-24T23:47:22.589Z,97943.25
2023-03-24T23:49:25.374Z,97965.38
2023-03-24T23:51:28.478Z,97955.00
2023-03-24T23:53:31.437Z,97964.25
2023-03-24T23:55:34.005Z,97960.28
2023-03-24T23:57:36.609Z,97967.16
2023-03-24T23:59:39.899Z,97971.16
